Time;durP1;ratioP1;P1;durP2;ratioP2;P2;SDS_P1;SDS_P2;PMS_P1;PMS_P2;Temp;Humidity;BMP_temperature;BMP_pressure;BME280_temperature;BME280_humidity;BME280_pressure;Samples;Min_cycle;Max_cycle;Signal;HPM_P1;HPM_P2
2022/02/05 00:00:53;;;;;;;15.98;5.15;;;2.00;99.90;;;;;;5098730;28;20042;-61
2022/02/05 00:03:45;;;;;;;17.25;6.18;;;1.90;99.90;;;;;;5112826;28;20028;-61
2022/02/05 00:06:34;;;;;;;16.55;6.05;;;1.90;99.90;;;;;;5111931;28;20131;-61
2022/02/05 00:09:42;;;;;;;20.00;5.20;;;1.90;99.90;;;;;;5104793;28;20056;-61
2022/02/05 00:13:00;;;;;;;;;;;2.00;99.90;;;;;;5109737;28;20089;-61
2022/02/05 00:16:05;;;;;;;16.00;5.32;;;1.90;99.90;;;;;;5108053;28;19923;-61
2022/02/05 00:40:33;;;;;;;8.75;5.30;;;1.80;99.90;;;;;;5086294;28;20043;-61
2022/02/05 00:43:18;;;;;;;12.93;6.70;;;1.80;99.90;;;;;;5101200;28;20062;-61
2022/02/05 00:46:02;;;;;;;14.73;5.32;;;1.80;99.90;;;;;;5084552;28;20392;-61
2022/02/05 00:48:48;;;;;;;16.77;6.68;;;1.90;99.90;;;;;;5090152;28;20039;-60
2022/02/05 00:51:38;;;;;;;20.63;5.82;;;1.90;99.90;;;;;;5092537;28;20039;-62
2022/02/05 00:54:25;;;;;;;15.20;5.50;;;1.90;99.90;;;;;;5085747;28;20117;-61
2022/02/05 00:57:52;;;;;;;14.25;5.15;;;1.90;99.90;;;;;;5098291;28;20047;-61
2022/02/05 01:00:18;;;;;;;12.70;6.43;;;1.90;99.90;;;;;;5080300;28;20620;-60
2022/02/05 01:03:04;;;;;;;13.57;5.93;;;1.90;99.90;;;;;;5102263;28;20039;-61
2022/02/05 01:05:48;;;;;;;19.70;5.28;;;1.90;99.90;;;;;;5091676;28;20031;-61
2022/02/05 01:08:33;;;;;;;10.10;6.00;;;1.90;99.90;;;;;;5096561;28;20035;-61
2022/02/05 01:11:18;;;;;;;14.82;5.35;;;1.90;99.90;;;;;;5097231;28;20096;-61
2022/02/05 01:14:04;;;;;;;10.65;5.40;;;1.90;99.90;;;;;;5090820;28;20106;-62
2022/02/05 01:16:55;;;;;;;14.88;5.15;;;1.90;99.90;;;;;;5097393;28;20027;-60
2022/02/05 01:22:36;;;;;;;14.43;5.72;;;1.90;99.90;;;;;;5093883;28;20046;-61
2022/02/05 01:25:25;;;;;;;9.00;4.85;;;1.90;99.90;;;;;;5087590;28;20038;-62
2022/02/05 01:28:17;;;;;;;12.63;5.85;;;1.90;99.90;;;;;;5097784;28;20074;-61
2022/02/05 01:31:01;;;;;;;17.63;5.43;;;1.90;99.90;;;;;;5084780;28;20120;-61
2022/02/05 01:48:51;;;;;;;12.50;5.38;;;1.90;99.90;;;;;;5082807;28;21181;-61
2022/02/05 01:57:41;;;;;;;12.52;4.78;;;1.90;99.90;;;;;;5096369;28;20039;-61
2022/02/05 02:12:41;;;;;;;10.32;4.85;;;1.90;99.90;;;;;;5100772;28;20061;-61
2022/02/05 02:15:32;;;;;;;13.05;5.28;;;1.90;99.90;;;;;;5085110;28;20031;-61
2022/02/05 02:27:03;;;;;;;13.07;4.88;;;1.90;99.90;;;;;;5093092;28;20665;-61
2022/02/05 02:30:07;;;;;;;13.38;4.70;;;1.90;99.90;;;;;;5087191;28;20137;-60
2022/02/05 02:33:01;;;;;;;14.88;5.28;;;1.90;99.90;;;;;;5095943;28;20067;-62
2022/02/05 02:35:48;;;;;;;12.10;4.72;;;1.90;99.90;;;;;;5089706;28;20038;-61
2022/02/05 02:38:45;;;;;;;15.50;5.10;;;1.80;99.90;;;;;;5087731;28;20606;-61
2022/02/05 02:41:36;;;;;;;10.45;4.50;;;1.80;99.90;;;;;;5090966;28;20046;-62
2022/02/05 02:44:21;;;;;;;17.00;5.15;;;1.80;99.90;;;;;;5081958;28;20101;-61
2022/02/05 02:47:05;;;;;;;11.38;5.03;;;1.80;99.90;;;;;;5095934;28;20038;-61
2022/02/05 02:50:04;;;;;;;10.07;4.82;;;1.80;99.90;;;;;;5088200;28;20035;-61
2022/02/05 02:59:49;;;;;;;11.68;5.10;;;1.90;99.90;;;;;;5086779;28;20039;-62
2022/02/05 03:02:12;;;;;;;11.85;5.55;;;1.90;99.90;;;;;;5098198;28;20050;-61
2022/02/05 03:04:57;;;;;;;17.45;5.30;;;1.90;99.90;;;;;;5085503;28;20035;-61
2022/02/05 03:07:41;;;;;;;10.93;5.10;;;1.90;99.90;;;;;;5089329;28;20456;-61
2022/02/05 03:10:26;;;;;;;15.60;5.30;;;1.80;99.90;;;;;;5085876;28;20105;-61
2022/02/05 03:13:10;;;;;;;19.08;5.28;;;1.90;99.90;;;;;;5091379;28;20038;-61
2022/02/05 03:15:55;;;;;;;11.90;4.70;;;1.90;99.90;;;;;;5085736;28;20128;-58
2022/02/05 03:18:50;;;;;;;12.88;4.70;;;1.90;99.90;;;;;;5078283;28;20086;-61
2022/02/05 03:21:34;;;;;;;12.45;4.93;;;1.90;99.90;;;;;;5086042;28;20042;-61
2022/02/05 03:24:18;;;;;;;11.02;4.20;;;1.90;99.90;;;;;;5080390;28;20775;-61
2022/02/05 03:27:03;;;;;;;12.60;5.13;;;1.90;99.90;;;;;;5086400;28;20043;-60
2022/02/05 03:29:49;;;;;;;13.32;4.60;;;1.90;99.90;;;;;;5086331;28;20085;-60
2022/02/05 03:32:33;;;;;;;16.85;6.10;;;1.80;99.90;;;;;;5085193;28;20043;-61
2022/02/05 03:35:17;;;;;;;15.38;4.72;;;1.80;99.90;;;;;;5076196;28;20635;-62
2022/02/05 03:38:03;;;;;;;15.77;4.60;;;1.90;99.90;;;;;;5089236;28;20036;-61
2022/02/05 03:40:49;;;;;;;9.80;3.63;;;1.90;99.90;;;;;;5103942;28;20039;-60
2022/02/05 03:43:35;;;;;;;11.93;4.47;;;1.90;99.90;;;;;;5118908;27;20336;-60
2022/02/05 03:46:21;;;;;;;13.17;4.00;;;2.00;99.90;;;;;;5127528;27;20288;-60
2022/02/05 03:49:08;;;;;;;15.83;4.40;;;2.00;99.90;;;;;;5104585;28;20321;-60
2022/02/05 03:51:54;;;;;;;;;;;2.00;99.90;;;;;;5120861;27;20064;-60
2022/02/05 03:54:42;;;;;;;13.40;4.22;;;2.00;99.90;;;;;;5116661;27;19911;-58
2022/02/05 03:57:28;;;;;;;18.95;4.63;;;2.00;99.90;;;;;;5113421;27;20039;-60
2022/02/05 04:00:14;;;;;;;13.67;6.37;;;1.90;99.90;;;;;;5119039;27;20086;-60
2022/02/05 04:03:02;;;;;;;13.80;3.90;;;1.90;99.90;;;;;;5125245;27;20593;-60
2022/02/05 04:05:48;;;;;;;16.40;6.20;;;1.90;99.90;;;;;;5118467;27;20107;-61
2022/02/05 04:08:34;;;;;;;15.77;4.20;;;1.90;99.90;;;;;;5124573;27;20130;-61
2022/02/05 04:17:25;;;;;;;16.17;4.70;;;2.00;99.90;;;;;;5120326;27;20019;-61
2022/02/05 04:20:11;;;;;;;15.03;4.70;;;2.00;99.90;;;;;;5118880;27;20115;-61
2022/02/05 04:22:58;;;;;;;20.40;6.40;;;1.90;99.90;;;;;;5105185;27;20837;-62
2022/02/05 04:25:45;;;;;;;15.40;4.28;;;1.90;99.90;;;;;;5122184;27;20097;-61
2022/02/05 04:28:31;;;;;;;12.85;4.25;;;1.90;99.90;;;;;;5121066;27;20051;-60
2022/02/05 04:31:17;;;;;;;15.50;3.17;;;1.90;99.90;;;;;;5121482;27;20023;-61
2022/02/05 04:34:04;;;;;;;14.10;4.47;;;1.90;99.90;;;;;;5135562;27;20027;-62
2022/02/05 04:36:50;;;;;;;;;;;1.90;99.90;;;;;;5123666;27;20031;-61
2022/02/05 04:39:41;;;;;;;15.13;4.18;;;1.90;99.90;;;;;;5119359;27;19953;-61
2022/02/05 04:42:38;;;;;;;13.68;4.20;;;1.90;99.90;;;;;;5120383;27;20646;-61
2022/02/05 04:51:50;;;;;;;9.98;3.50;;;1.90;99.90;;;;;;5118508;27;20585;-61
2022/02/05 04:54:58;;;;;;;12.68;4.75;;;1.90;99.90;;;;;;5116684;27;20027;-60
2022/02/05 05:04:18;;;;;;;14.77;3.73;;;1.90;99.90;;;;;;5113718;27;20394;-62
2022/02/05 05:15:37;;;;;;;12.10;3.50;;;1.90;99.90;;;;;;5118422;27;20038;-61
2022/02/05 05:21:28;;;;;;;10.57;3.90;;;1.90;99.90;;;;;;5120862;27;20035;-61
2022/02/05 05:24:14;;;;;;;13.38;4.10;;;1.90;99.90;;;;;;5115237;27;20894;-61
2022/02/05 05:27:00;;;;;;;16.60;3.40;;;1.90;99.90;;;;;;5122552;27;20035;-61
2022/02/05 05:29:46;;;;;;;8.03;3.80;;;1.90;99.90;;;;;;5113235;27;20332;-61
2022/02/05 05:32:32;;;;;;;11.10;4.57;;;1.80;99.90;;;;;;5116502;27;20027;-61
2022/02/05 05:35:18;;;;;;;17.73;4.60;;;1.90;99.90;;;;;;5106414;27;20024;-60
2022/02/05 05:38:04;;;;;;;12.50;3.47;;;1.90;99.90;;;;;;5116552;27;20637;-62
2022/02/05 05:40:50;;;;;;;11.88;3.28;;;1.90;99.90;;;;;;5097185;27;20041;-61
2022/02/05 05:46:41;;;;;;;11.05;3.50;;;1.80;99.90;;;;;;5105281;27;20567;-61
2022/02/05 05:49:45;;;;;;;14.82;3.30;;;1.90;99.90;;;;;;5094436;27;20654;-60
2022/02/05 05:52:31;;;;;;;13.50;3.67;;;1.90;99.90;;;;;;5098952;27;20081;-61
2022/02/05 05:55:18;;;;;;;20.00;3.95;;;1.90;99.90;;;;;;5098725;27;20027;-62
2022/02/05 05:58:04;;;;;;;14.20;3.63;;;1.90;99.90;;;;;;5105653;27;20742;-61
2022/02/05 06:00:50;;;;;;;13.60;3.30;;;1.90;99.90;;;;;;5093143;27;20649;-61
2022/02/05 06:03:37;;;;;;;17.35;4.05;;;1.90;99.90;;;;;;5092595;27;20035;-62
2022/02/05 06:06:23;;;;;;;13.75;3.58;;;1.80;99.90;;;;;;5117607;27;20140;-59
2022/02/05 06:09:09;;;;;;;18.10;3.28;;;1.80;99.90;;;;;;5114393;27;20027;-61
2022/02/05 06:11:55;;;;;;;16.70;4.13;;;1.80;99.90;;;;;;5118198;27;21507;-61
2022/02/05 06:14:43;;;;;;;15.27;3.28;;;1.90;99.90;;;;;;5112595;27;20328;-61
2022/02/05 06:17:29;;;;;;;13.95;3.47;;;1.90;99.90;;;;;;5114432;27;20043;-61
2022/02/05 06:20:15;;;;;;;17.70;3.72;;;1.90;99.90;;;;;;5114484;27;20027;-62
2022/02/05 06:23:01;;;;;;;8.53;3.50;;;1.90;99.90;;;;;;5122497;27;20030;-63
2022/02/05 06:25:47;;;;;;;10.67;3.30;;;1.90;99.90;;;;;;5113395;27;20128;-63
2022/02/05 06:28:33;;;;;;;12.27;3.00;;;1.90;99.90;;;;;;5118836;27;20030;-62
2022/02/05 06:31:19;;;;;;;10.82;3.05;;;1.90;99.90;;;;;;5109630;27;20334;-63
2022/02/05 06:34:05;;;;;;;12.97;3.80;;;1.90;99.90;;;;;;5131951;27;20512;-61
2022/02/05 06:36:51;;;;;;;13.20;5.53;;;1.80;99.90;;;;;;5120018;27;20007;-62
2022/02/05 06:39:38;;;;;;;12.48;3.47;;;1.80;99.90;;;;;;5121620;27;20264;-60
2022/02/05 06:42:24;;;;;;;12.63;3.47;;;1.80;99.90;;;;;;5117139;27;20379;-61
2022/02/05 06:45:10;;;;;;;15.23;4.60;;;1.90;99.90;;;;;;5107662;27;20585;-60
2022/02/05 06:47:56;;;;;;;12.53;2.90;;;1.90;99.90;;;;;;5122687;27;20499;-62
2022/02/05 06:50:42;;;;;;;10.07;3.57;;;1.80;99.90;;;;;;5102824;27;20066;-63
2022/02/05 06:53:28;;;;;;;11.00;3.38;;;1.90;99.90;;;;;;5113358;27;20253;-63
2022/02/05 06:56:13;;;;;;;16.65;3.25;;;1.90;99.90;;;;;;5119062;27;20127;-62
2022/02/05 06:58:59;;;;;;;15.57;3.67;;;1.90;99.90;;;;;;5116482;27;20679;-62
2022/02/05 07:01:45;;;;;;;6.03;2.70;;;1.90;99.90;;;;;;5119970;27;20277;-63
2022/02/05 07:04:31;;;;;;;16.70;3.67;;;1.90;99.90;;;;;;5111330;27;20768;-64
2022/02/05 07:07:17;;;;;;;9.48;3.05;;;1.80;99.90;;;;;;5117423;27;20364;-63
2022/02/05 07:10:04;;;;;;;11.40;3.10;;;1.80;99.90;;;;;;5115147;27;20038;-60
2022/02/05 07:13:04;;;;;;;;;;;1.90;99.90;;;;;;5099158;28;20024;-62
2022/02/05 07:16:01;;;;;;;11.18;2.92;;;1.80;99.90;;;;;;5087649;28;19973;-63
2022/02/05 07:19:11;;;;;;;11.90;4.15;;;1.80;99.90;;;;;;5099016;28;20110;-61
2022/02/05 07:21:57;;;;;;;19.63;3.88;;;1.80;99.90;;;;;;5102661;28;20063;-58
2022/02/05 07:24:58;;;;;;;15.97;3.57;;;1.80;99.90;;;;;;5093084;28;20031;-61
2022/02/05 07:30:50;;;;;;;11.55;3.38;;;1.90;99.90;;;;;;5120392;27;20019;-61
2022/02/05 07:33:36;;;;;;;7.35;2.95;;;1.90;99.90;;;;;;5117911;27;20027;-61
2022/02/05 07:36:23;;;;;;;19.85;3.38;;;1.90;99.90;;;;;;5136979;27;20031;-62
2022/02/05 07:39:08;;;;;;;10.60;2.97;;;1.90;99.90;;;;;;5135573;27;20588;-60
2022/02/05 07:41:53;;;;;;;13.80;3.63;;;1.90;99.90;;;;;;5115602;27;20045;-61
2022/02/05 07:44:37;;;;;;;13.95;2.80;;;2.00;99.90;;;;;;5129870;27;20086;-61
2022/02/05 07:47:25;;;;;;;8.97;3.33;;;2.00;99.90;;;;;;5129397;27;20035;-62
2022/02/05 07:50:09;;;;;;;8.80;3.00;;;2.00;99.90;;;;;;5127173;27;20264;-61
2022/02/05 07:52:53;;;;;;;19.83;3.92;;;1.90;99.90;;;;;;5133075;27;20072;-61
2022/02/05 07:55:37;;;;;;;8.73;3.20;;;1.90;99.90;;;;;;5123195;27;20462;-61
2022/02/05 07:58:22;;;;;;;12.52;4.10;;;2.00;99.90;;;;;;5045989;28;20547;-62
2022/02/05 08:01:06;;;;;;;12.70;3.20;;;2.00;99.90;;;;;;5039945;28;20063;-61
2022/02/05 08:03:50;;;;;;;12.32;3.63;;;2.00;99.90;;;;;;5042541;28;20527;-63
2022/02/05 08:06:35;;;;;;;11.65;4.63;;;2.00;99.90;;;;;;5041098;28;20044;-62
2022/02/05 08:09:28;;;;;;;16.98;4.05;;;2.00;99.90;;;;;;5042523;28;20059;-61
2022/02/05 08:12:14;;;;;;;17.02;4.10;;;2.00;99.90;;;;;;5043047;28;20028;-60
2022/02/05 08:15:00;;;;;;;9.57;3.00;;;2.00;99.90;;;;;;5037058;28;20482;-61
2022/02/05 08:17:44;;;;;;;11.30;3.95;;;2.00;99.90;;;;;;5048362;28;20121;-62
2022/02/05 08:20:28;;;;;;;18.35;3.95;;;2.10;99.90;;;;;;5042686;28;20037;-61
2022/02/05 08:23:12;;;;;;;13.68;3.67;;;2.10;99.90;;;;;;5039161;28;20111;-61
2022/02/05 08:25:57;;;;;;;15.75;3.92;;;2.10;99.90;;;;;;5024533;28;20079;-62
2022/02/05 08:28:44;;;;;;;7.88;3.42;;;2.10;99.90;;;;;;5031826;28;20094;-61
2022/02/05 08:31:34;;;;;;;13.10;3.15;;;2.20;99.90;;;;;;5020648;28;20054;-62
2022/02/05 08:34:20;;;;;;;12.57;3.47;;;2.20;99.90;;;;;;5022723;28;20578;-62
2022/02/05 08:37:06;;;;;;;10.77;3.60;;;2.10;99.90;;;;;;5035063;28;20027;-62
2022/02/05 08:39:52;;;;;;;8.10;2.87;;;2.10;99.90;;;;;;5035558;28;20033;-62
2022/02/05 08:42:38;;;;;;;12.80;3.50;;;2.10;99.90;;;;;;5036494;28;20260;-62
2022/02/05 08:45:24;;;;;;;6.15;3.10;;;2.10;99.90;;;;;;5032320;28;20112;-62
2022/02/05 08:48:11;;;;;;;12.00;3.60;;;2.10;99.90;;;;;;5034723;28;20039;-62
2022/02/05 08:50:57;;;;;;;13.38;3.35;;;2.10;99.90;;;;;;5033637;28;20124;-62
2022/02/05 08:53:43;;;;;;;13.82;3.47;;;2.10;99.90;;;;;;5029123;28;20029;-62
2022/02/05 08:56:29;;;;;;;18.42;4.28;;;2.10;99.90;;;;;;5030007;28;20041;-63
2022/02/05 08:59:15;;;;;;;11.23;2.97;;;2.20;99.90;;;;;;5034651;28;21373;-62
2022/02/05 09:02:11;;;;;;;8.77;3.10;;;2.10;99.90;;;;;;5028174;28;20075;-61
2022/02/05 09:05:12;;;;;;;10.35;3.08;;;2.10;99.90;;;;;;5030047;28;20251;-62
2022/02/05 09:07:58;;;;;;;10.38;3.40;;;2.10;99.90;;;;;;5015873;28;20865;-62
2022/02/05 09:11:09;;;;;;;20.17;4.03;;;2.10;99.90;;;;;;5033020;28;20060;-62
2022/02/05 09:14:10;;;;;;;11.38;2.70;;;2.10;99.90;;;;;;5034768;28;20031;-61
2022/02/05 09:16:57;;;;;;;14.77;4.63;;;2.20;99.90;;;;;;5030479;28;20032;-61
2022/02/05 09:19:43;;;;;;;8.00;2.42;;;2.20;99.90;;;;;;5017509;28;20068;-60
2022/02/05 09:22:30;;;;;;;13.18;3.40;;;2.20;99.90;;;;;;5018954;28;20604;-61
2022/02/05 09:25:20;;;;;;;14.85;3.28;;;2.30;99.90;;;;;;5019265;28;20799;-62
2022/02/05 09:28:08;;;;;;;10.98;3.28;;;2.40;99.90;;;;;;5035559;28;20040;-61
2022/02/05 09:33:53;;;;;;;16.70;3.60;;;2.50;99.90;;;;;;5031786;28;20031;-59
2022/02/05 09:36:40;;;;;;;16.77;3.60;;;2.50;99.90;;;;;;5029745;28;20053;-61
2022/02/05 09:39:26;;;;;;;12.85;3.55;;;2.50;99.90;;;;;;5034084;28;20680;-60
2022/02/05 09:42:15;;;;;;;10.98;3.50;;;2.50;99.90;;;;;;5033602;28;20056;-61
2022/02/05 09:45:02;;;;;;;9.35;3.17;;;2.50;99.90;;;;;;5020710;28;20618;-60
2022/02/05 09:47:51;;;;;;;17.77;3.40;;;2.50;99.90;;;;;;5034376;28;20660;-61
2022/02/05 09:50:37;;;;;;;17.10;3.05;;;2.50;99.90;;;;;;5030902;28;20120;-60
2022/02/05 09:53:22;;;;;;;12.07;3.38;;;2.50;99.90;;;;;;5044078;28;20056;-60
2022/02/05 09:56:06;;;;;;;9.77;3.30;;;2.60;99.90;;;;;;5045226;28;20056;-62
2022/02/05 09:58:52;;;;;;;11.35;3.50;;;2.70;99.90;;;;;;5046234;28;20091;-60
2022/02/05 10:01:38;;;;;;;8.57;3.40;;;2.70;99.90;;;;;;5041491;28;20121;-62
2022/02/05 10:04:22;;;;;;;12.77;3.42;;;2.80;99.90;;;;;;5041535;28;20036;-59
2022/02/05 10:07:07;;;;;;;9.10;2.80;;;2.80;99.90;;;;;;5028071;28;20087;-60
2022/02/05 10:10:00;;;;;;;13.93;2.97;;;2.90;99.90;;;;;;5046390;28;20036;-60
2022/02/05 10:12:45;;;;;;;16.17;3.55;;;2.80;99.90;;;;;;5048074;28;20102;-61
2022/02/05 10:15:34;;;;;;;12.48;3.50;;;2.90;99.90;;;;;;5031490;28;20044;-61
2022/02/05 10:18:55;;;;;;;8.90;2.58;;;2.90;99.90;;;;;;5040464;28;20032;-61
2022/02/05 10:21:40;;;;;;;13.73;3.85;;;3.00;99.90;;;;;;5041221;28;20044;-61
2022/02/05 10:24:24;;;;;;;11.77;2.95;;;3.00;99.90;;;;;;5028793;28;20044;-60
2022/02/05 10:27:08;;;;;;;23.52;4.10;;;3.00;99.90;;;;;;5041276;28;20272;-61
2022/02/05 10:30:14;;;;;;;16.38;4.15;;;3.10;99.90;;;;;;5037896;28;20555;-61
2022/02/05 10:33:06;;;;;;;13.25;3.53;;;3.00;99.90;;;;;;5040579;28;20043;-61
2022/02/05 10:45:20;;;;;;;23.17;6.32;;;3.10;99.90;;;;;;5040844;28;20032;-61
2022/02/05 10:48:05;;;;;;;12.52;2.90;;;3.10;99.90;;;;;;5037049;28;20102;-60
2022/02/05 10:50:51;;;;;;;15.93;4.45;;;3.30;99.90;;;;;;5035551;28;20040;-60
2022/02/05 10:53:49;;;;;;;11.53;2.97;;;3.30;99.90;;;;;;5046192;28;20079;-61
2022/02/05 10:56:37;;;;;;;12.80;3.05;;;3.30;99.90;;;;;;5033629;28;20314;-61
2022/02/05 10:59:48;;;;;;;9.00;2.83;;;3.40;99.90;;;;;;5033311;28;20541;-61
2022/02/05 11:05:43;;;;;;;11.88;3.00;;;3.50;99.90;;;;;;5032838;28;20491;-61
2022/02/05 11:08:28;;;;;;;10.27;3.20;;;3.50;99.90;;;;;;5024597;28;20125;-62
2022/02/05 11:11:38;;;;;;;12.93;3.08;;;3.60;99.90;;;;;;5043817;28;20036;-61
2022/02/05 11:20:27;;;;;;;11.40;2.88;;;3.40;99.90;;;;;;5039485;28;20242;-61
2022/02/05 11:23:12;;;;;;;16.10;3.28;;;3.40;99.90;;;;;;5042115;28;20550;-61
2022/02/05 11:25:58;;;;;;;12.68;3.75;;;3.40;99.90;;;;;;5037157;28;20518;-61
2022/02/05 11:28:43;;;;;;;10.20;2.70;;;3.40;99.90;;;;;;5045253;28;20103;-61
2022/02/05 11:31:32;;;;;;;16.08;3.67;;;3.30;99.90;;;;;;5040433;28;20561;-61
2022/02/05 11:34:38;;;;;;;13.23;3.35;;;3.30;99.90;;;;;;5039321;28;20102;-61
2022/02/05 11:37:22;;;;;;;11.70;2.67;;;3.40;99.90;;;;;;5035484;28;20122;-62
2022/02/05 11:40:07;;;;;;;6.22;2.67;;;3.40;99.90;;;;;;5036151;28;20510;-62
2022/02/05 11:43:17;;;;;;;9.88;3.20;;;3.50;99.90;;;;;;5042920;28;20082;-60
2022/02/05 11:46:05;;;;;;;13.27;3.85;;;3.70;99.90;;;;;;5035714;28;20120;-62
2022/02/05 11:48:55;;;;;;;9.38;2.88;;;3.70;99.90;;;;;;5046552;28;20086;-61
2022/02/05 11:51:46;;;;;;;8.20;2.67;;;3.80;99.90;;;;;;5041585;28;20040;-61
2022/02/05 11:54:30;;;;;;;9.98;2.00;;;3.70;99.90;;;;;;5024718;28;20045;-61
2022/02/05 11:57:14;;;;;;;12.23;3.00;;;3.60;99.90;;;;;;5044052;28;20086;-60
2022/02/05 12:00:05;;;;;;;8.73;2.40;;;3.50;99.90;;;;;;5040418;28;20725;-62
2022/02/05 12:03:02;;;;;;;5.20;2.70;;;3.30;99.90;;;;;;5031428;28;20105;-62
2022/02/05 12:05:55;;;;;;;14.07;3.58;;;3.30;99.90;;;;;;5027216;28;20041;-60
2022/02/05 12:08:42;;;;;;;7.97;2.88;;;3.30;99.90;;;;;;5034648;28;20116;-60
2022/02/05 12:11:33;;;;;;;6.97;2.33;;;3.40;99.90;;;;;;5031873;28;20033;-60
2022/02/05 12:14:19;;;;;;;12.77;3.17;;;3.60;99.90;;;;;;5018667;28;20029;-58
2022/02/05 12:17:16;;;;;;;11.50;2.65;;;3.70;99.90;;;;;;5035409;28;20098;-60
2022/02/05 12:20:09;;;;;;;11.40;2.80;;;3.70;99.90;;;;;;5028698;28;20037;-61
2022/02/05 12:25:59;;;;;;;19.60;2.97;;;3.80;99.90;;;;;;5035077;28;20098;-62
2022/02/05 12:28:56;;;;;;;9.18;2.55;;;3.90;99.90;;;;;;5047288;28;20040;-61
2022/02/05 12:31:49;;;;;;;15.07;2.22;;;4.10;99.90;;;;;;5044015;28;20077;-62
2022/02/05 12:34:36;;;;;;;11.43;2.80;;;4.30;99.90;;;;;;5045796;28;20675;-62
2022/02/05 12:37:20;;;;;;;9.48;2.50;;;4.40;99.90;;;;;;5042471;28;20102;-61
2022/02/05 12:40:05;;;;;;;12.02;2.35;;;4.30;99.90;;;;;;5033721;28;20040;-62
2022/02/05 12:42:54;;;;;;;7.72;2.30;;;4.20;99.90;;;;;;5047126;28;20158;-61
2022/02/05 12:46:05;;;;;;;8.73;2.83;;;4.00;99.90;;;;;;5042939;28;20040;-62
2022/02/05 12:48:55;;;;;;;8.23;2.47;;;4.10;99.90;;;;;;5051059;28;20036;-63
2022/02/05 12:51:44;;;;;;;16.30;3.60;;;4.20;99.90;;;;;;5045246;28;20052;-62
2022/02/05 12:54:30;;;;;;;8.65;2.72;;;4.20;99.90;;;;;;5046431;28;20086;-62
2022/02/05 12:57:17;;;;;;;15.63;3.13;;;4.10;99.90;;;;;;5044983;28;20541;-62
2022/02/05 13:00:07;;;;;;;8.02;2.50;;;4.00;99.90;;;;;;5043662;28;20106;-61
2022/02/05 13:02:52;;;;;;;13.60;2.90;;;3.90;99.90;;;;;;5051241;28;20052;-61
2022/02/05 13:05:36;;;;;;;15.57;3.22;;;3.90;99.90;;;;;;5029061;28;20048;-62
2022/02/05 13:08:21;;;;;;;8.13;2.85;;;3.90;99.90;;;;;;5046641;28;20043;-62
2022/02/05 13:11:05;;;;;;;10.43;3.00;;;3.90;99.90;;;;;;5038199;28;20032;-62
2022/02/05 13:13:53;;;;;;;13.45;3.08;;;3.90;99.90;;;;;;5047162;28;20036;-62
2022/02/05 13:16:40;;;;;;;13.40;3.40;;;4.00;99.90;;;;;;5042219;28;20043;-61
2022/02/05 13:19:28;;;;;;;7.30;2.25;;;3.90;99.90;;;;;;5050499;28;20039;-61
2022/02/05 13:34:16;;;;;;;16.00;2.72;;;3.80;99.90;;;;;;5047551;28;20416;-58
2022/02/05 13:40:18;;;;;;;8.60;2.20;;;3.80;99.90;;;;;;5037221;28;20494;-57
2022/02/05 13:43:13;;;;;;;9.00;2.17;;;3.90;99.90;;;;;;5048318;28;20506;-62
2022/02/05 13:46:21;;;;;;;10.63;2.08;;;3.80;99.90;;;;;;5035005;28;20048;-62
2022/02/05 13:49:17;;;;;;;11.25;2.33;;;3.90;99.90;;;;;;5040383;28;20117;-62
2022/02/05 13:52:14;;;;;;;7.50;2.22;;;3.70;99.90;;;;;;5028287;28;20108;-61
2022/02/05 13:55:20;;;;;;;9.43;2.13;;;3.70;99.90;;;;;;5027447;28;20696;-61
2022/02/05 13:58:06;;;;;;;12.98;2.47;;;3.70;99.90;;;;;;5035675;28;20040;-61
2022/02/05 14:00:56;;;;;;;8.73;2.17;;;3.60;99.90;;;;;;5025830;28;20046;-62
2022/02/05 14:03:42;;;;;;;12.68;2.88;;;3.60;99.90;;;;;;5019333;28;20044;-62
2022/02/05 14:06:28;;;;;;;8.48;2.15;;;3.70;99.90;;;;;;5027599;28;20139;-61
2022/02/05 14:09:22;;;;;;;9.23;2.35;;;3.60;99.90;;;;;;5021009;28;20066;-61
2022/02/05 14:12:19;;;;;;;9.07;2.22;;;3.60;99.90;;;;;;5032001;28;20033;-61
2022/02/05 14:15:05;;;;;;;8.38;1.85;;;3.70;99.90;;;;;;5027074;28;20060;-61
2022/02/05 14:18:13;;;;;;;8.30;2.25;;;3.60;99.90;;;;;;5032438;28;20102;-61
2022/02/05 14:21:01;;;;;;;5.95;1.83;;;3.70;99.90;;;;;;5027856;28;20033;-63
2022/02/05 14:23:52;;;;;;;12.30;2.85;;;3.70;99.90;;;;;;5025885;28;20037;-61
2022/02/05 14:26:49;;;;;;;8.45;2.25;;;3.70;99.90;;;;;;5031327;28;20048;-60
2022/02/05 14:35:41;;;;;;;8.80;1.95;;;3.50;99.90;;;;;;5029324;28;20033;-62
2022/02/05 14:41:32;;;;;;;6.90;1.85;;;3.50;99.90;;;;;;5030415;28;20063;-60
2022/02/05 14:44:18;;;;;;;9.43;2.20;;;3.40;99.90;;;;;;5026426;28;20037;-61
2022/02/05 14:47:06;;;;;;;9.02;2.13;;;3.50;99.90;;;;;;5025196;28;20660;-62
2022/02/05 14:49:52;;;;;;;5.60;2.22;;;3.50;99.90;;;;;;5031365;28;20064;-62
2022/02/05 14:52:38;;;;;;;4.77;2.10;;;3.50;99.90;;;;;;5032462;28;20036;-60
2022/02/05 14:55:24;;;;;;;8.07;2.23;;;3.50;99.90;;;;;;5034929;28;20040;-61
2022/02/05 14:58:08;;;;;;;7.32;2.28;;;3.50;99.90;;;;;;5039812;28;20321;-62
2022/02/05 15:00:53;;;;;;;9.95;2.67;;;3.50;99.90;;;;;;5033908;28;20597;-60
2022/02/05 15:03:43;;;;;;;14.98;2.47;;;3.50;99.90;;;;;;5054211;28;20043;-62
2022/02/05 15:06:30;;;;;;;12.23;2.20;;;3.40;99.90;;;;;;5037212;28;20581;-62
2022/02/05 15:09:16;;;;;;;12.60;2.35;;;3.40;99.90;;;;;;5045704;28;20435;-62
2022/02/05 15:12:01;;;;;;;;;;;3.40;99.90;;;;;;5036918;28;20039;-62
2022/02/05 15:14:45;;;;;;;10.27;2.15;;;3.30;99.90;;;;;;5042759;28;19916;-62
2022/02/05 15:17:30;;;;;;;7.88;2.20;;;3.30;99.90;;;;;;5036952;28;20103;-61
2022/02/05 15:20:17;;;;;;;6.97;1.92;;;3.20;99.90;;;;;;5041893;28;20040;-61
2022/02/05 15:23:01;;;;;;;11.93;2.20;;;3.20;99.90;;;;;;5037462;28;20043;-62
2022/02/05 15:25:45;;;;;;;6.72;2.35;;;3.20;99.90;;;;;;5040720;28;20099;-62
2022/02/05 15:28:30;;;;;;;8.88;1.77;;;3.10;99.90;;;;;;5046074;28;20400;-62
2022/02/05 15:31:15;;;;;;;4.70;2.22;;;3.10;99.90;;;;;;5043794;28;20081;-62
2022/02/05 15:34:02;;;;;;;8.65;1.83;;;3.10;99.90;;;;;;5033218;28;20076;-62
2022/02/05 15:36:52;;;;;;;7.28;1.90;;;3.10;99.90;;;;;;5040454;28;20446;-61
2022/02/05 15:45:51;;;;;;;9.32;1.92;;;3.00;99.90;;;;;;5012716;28;20116;-62
2022/02/05 15:48:35;;;;;;;18.48;1.95;;;3.00;99.90;;;;;;5047246;28;20114;-61
2022/02/05 15:51:21;;;;;;;9.55;1.88;;;3.00;99.90;;;;;;5044146;28;20151;-61
2022/02/05 15:54:06;;;;;;;12.32;2.40;;;2.90;99.90;;;;;;5038140;28;20044;-61
2022/02/05 16:02:35;;;;;;;8.57;1.85;;;2.90;99.90;;;;;;5042894;28;20116;-58
2022/02/05 16:05:19;;;;;;;4.72;1.80;;;2.90;99.90;;;;;;5044046;28;20454;-62
2022/02/05 16:08:03;;;;;;;9.63;2.00;;;2.90;99.90;;;;;;5048699;28;20052;-61
2022/02/05 16:10:49;;;;;;;9.00;1.70;;;2.80;99.90;;;;;;5043977;28;20392;-61
2022/02/05 16:13:33;;;;;;;6.85;2.05;;;2.80;99.90;;;;;;5049379;28;20044;-61
2022/02/05 16:16:19;;;;;;;8.15;1.92;;;2.80;99.90;;;;;;5044272;28;20124;-61
2022/02/05 16:19:03;;;;;;;7.00;1.90;;;2.80;99.90;;;;;;5047730;28;20043;-60
2022/02/05 16:21:47;;;;;;;8.02;1.90;;;2.80;99.90;;;;;;5044120;28;20036;-62
2022/02/05 16:24:33;;;;;;;9.32;2.83;;;2.80;99.90;;;;;;5044217;28;20071;-60
2022/02/05 16:27:17;;;;;;;6.60;2.47;;;2.80;99.90;;;;;;5043021;28;20035;-61
2022/02/05 16:30:06;;;;;;;7.88;1.80;;;2.80;99.90;;;;;;5041267;28;20052;-61
2022/02/05 16:32:54;;;;;;;5.75;2.08;;;2.70;99.90;;;;;;5026786;28;20525;-60
2022/02/05 16:35:45;;;;;;;8.25;2.22;;;2.70;99.90;;;;;;5049254;28;20075;-61
2022/02/05 16:38:30;;;;;;;9.98;2.45;;;2.70;99.90;;;;;;5048259;28;20063;-61
2022/02/05 16:41:15;;;;;;;10.85;2.15;;;2.70;99.90;;;;;;5045242;28;20388;-61
2022/02/05 16:43:59;;;;;;;5.03;2.53;;;2.70;99.90;;;;;;5038381;28;20084;-61
2022/02/05 16:46:47;;;;;;;5.13;1.50;;;2.70;99.90;;;;;;5044872;28;20048;-60
2022/02/05 16:49:32;;;;;;;7.18;1.98;;;2.70;99.90;;;;;;5046205;28;20087;-61
2022/02/05 16:52:18;;;;;;;6.88;2.13;;;2.60;99.90;;;;;;5045537;28;20040;-64
2022/02/05 16:55:02;;;;;;;3.90;1.25;;;2.60;99.90;;;;;;5045220;28;20126;-62
2022/02/05 16:57:47;;;;;;;11.85;2.45;;;2.60;99.90;;;;;;5048725;28;20044;-61
2022/02/05 17:00:33;;;;;;;9.70;2.53;;;2.60;99.90;;;;;;5042517;28;20055;-62
2022/02/05 17:03:19;;;;;;;6.35;1.85;;;2.60;99.90;;;;;;5035172;28;20536;-64
2022/02/05 17:06:03;;;;;;;15.65;2.03;;;2.60;99.90;;;;;;5058025;28;20044;-61
2022/02/05 17:08:52;;;;;;;8.13;1.98;;;2.60;99.90;;;;;;5068067;28;20096;-62
2022/02/05 17:11:36;;;;;;;7.72;2.03;;;2.50;99.90;;;;;;5065806;28;20031;-61
2022/02/05 17:14:21;;;;;;;6.82;1.77;;;2.50;99.90;;;;;;5068986;28;20035;-61
2022/02/05 17:17:12;;;;;;;9.38;1.92;;;2.50;99.90;;;;;;5059478;28;20032;-61
2022/02/05 17:19:58;;;;;;;7.68;1.90;;;2.50;99.90;;;;;;5060344;28;20039;-62
2022/02/05 17:22:42;;;;;;;11.27;2.47;;;2.50;99.90;;;;;;5061624;28;20071;-61
2022/02/05 17:25:32;;;;;;;6.07;2.17;;;2.50;99.90;;;;;;5051269;28;20079;-61
2022/02/05 17:28:19;;;;;;;11.13;2.42;;;2.50;99.90;;;;;;5064034;28;20043;-61
2022/02/05 17:31:03;;;;;;;10.20;2.35;;;2.50;99.90;;;;;;5031434;28;20564;-61